Time;durP1;ratioP1;P1;durP2;ratioP2;P2;SDS_P1;SDS_P2;PMS_P1;PMS_P2;Temp;Humidity;BMP_temperature;BMP_pressure;BME280_temperature;BME280_humidity;BME280_pressure;Samples;Min_cycle;Max_cycle;Signal;HPM_P1;HPM_P2
2024/02/19 00:01:27;;;;;;;3.33;2.38;;;7.20;99.90;;;;;;5062743;28;20020;-70
2024/02/19 00:03:52;;;;;;;6.43;1.92;;;7.20;99.90;;;;;;5062831;28;20089;-70
2024/02/19 00:06:18;;;;;;;3.80;1.83;;;7.10;99.90;;;;;;5062728;28;20040;-73
2024/02/19 00:08:43;;;;;;;4.93;1.80;;;7.10;99.90;;;;;;5060887;28;20052;-69
2024/02/19 00:11:09;;;;;;;4.90;1.45;;;7.10;99.90;;;;;;5062412;28;20033;-68
2024/02/19 00:13:36;;;;;;;4.70;1.40;;;7.00;99.90;;;;;;5062551;28;20033;-71
2024/02/19 00:16:02;;;;;;;3.60;1.40;;;7.00;99.90;;;;;;5061842;28;20021;-70
2024/02/19 00:18:27;;;;;;;3.72;1.10;;;6.90;99.90;;;;;;5062582;28;20017;-70
2024/02/19 00:20:53;;;;;;;3.72;0.88;;;6.90;99.90;;;;;;5062319;28;20021;-72
2024/02/19 00:23:19;;;;;;;2.67;0.80;;;6.90;99.90;;;;;;5062497;28;20037;-70
2024/02/19 00:25:44;;;;;;;2.42;0.90;;;6.80;99.90;;;;;;5063113;28;20025;-70
2024/02/19 00:28:11;;;;;;;3.20;1.00;;;6.80;99.90;;;;;;5062725;28;20116;-70
2024/02/19 00:30:36;;;;;;;3.00;0.70;;;6.80;99.90;;;;;;5061216;28;20021;-74
2024/02/19 00:33:02;;;;;;;2.72;0.60;;;6.80;99.90;;;;;;5062482;28;20036;-74
2024/02/19 00:35:27;;;;;;;5.88;0.90;;;6.80;99.90;;;;;;5062638;28;20056;-71
2024/02/19 00:37:53;;;;;;;11.57;1.17;;;6.80;99.90;;;;;;5062414;28;20074;-70
2024/02/19 00:40:19;;;;;;;7.05;1.30;;;6.70;99.90;;;;;;5062344;28;20024;-70
2024/02/19 00:42:44;;;;;;;9.05;1.83;;;6.80;99.90;;;;;;5061867;28;20025;-70
2024/02/19 00:45:11;;;;;;;8.27;1.70;;;6.80;99.90;;;;;;5061282;28;20487;-69
2024/02/19 00:47:36;;;;;;;7.70;2.40;;;6.80;99.90;;;;;;5062020;28;20725;-72
2024/02/19 00:50:23;;;;;;;10.68;2.28;;;6.80;99.90;;;;;;5059097;28;20037;-69
2024/02/19 00:52:48;;;;;;;12.60;3.05;;;6.80;99.90;;;;;;5058363;28;20500;-72
2024/02/19 00:55:14;;;;;;;16.15;2.80;;;6.80;99.90;;;;;;5059706;28;20021;-70
2024/02/19 00:57:39;;;;;;;15.10;3.15;;;6.80;99.90;;;;;;5060674;28;20063;-73
2024/02/19 01:00:06;;;;;;;16.75;3.55;;;6.80;99.90;;;;;;5058243;28;20021;-72
2024/02/19 01:02:31;;;;;;;14.20;2.78;;;6.80;99.90;;;;;;5061500;28;20094;-74
2024/02/19 01:04:58;;;;;;;14.50;2.70;;;6.80;99.90;;;;;;5059298;28;20021;-73
2024/02/19 01:07:25;;;;;;;13.50;2.72;;;6.80;99.90;;;;;;5060932;28;20017;-70
2024/02/19 01:09:50;;;;;;;15.80;3.13;;;6.80;99.90;;;;;;5060842;28;20028;-71
2024/02/19 01:12:16;;;;;;;20.95;2.97;;;6.80;99.90;;;;;;5059737;28;20116;-70
2024/02/19 01:14:42;;;;;;;19.15;3.15;;;6.80;99.90;;;;;;5060731;28;20028;-70
2024/02/19 01:17:08;;;;;;;16.30;2.90;;;6.80;99.90;;;;;;5059271;28;20085;-70
2024/02/19 01:19:38;;;;;;;21.98;3.80;;;6.80;99.90;;;;;;5060804;28;20025;-71
2024/02/19 01:22:04;;;;;;;23.10;3.40;;;6.80;99.90;;;;;;5058425;28;20033;-71
2024/02/19 01:24:31;;;;;;;15.10;2.90;;;6.80;99.90;;;;;;5060854;28;20046;-69
2024/02/19 01:26:57;;;;;;;16.45;2.92;;;6.80;99.90;;;;;;5060465;28;20035;-72
2024/02/19 01:29:24;;;;;;;16.25;2.35;;;6.80;99.90;;;;;;5061275;28;20033;-72
2024/02/19 01:31:50;;;;;;;16.23;2.30;;;6.80;99.90;;;;;;5059954;28;20037;-74
2024/02/19 01:34:17;;;;;;;17.73;2.33;;;6.80;99.90;;;;;;5058108;28;20029;-71
2024/02/19 01:36:44;;;;;;;10.18;1.70;;;6.80;99.90;;;;;;5059943;28;20041;-70
2024/02/19 01:39:10;;;;;;;19.60;2.50;;;6.80;99.90;;;;;;5060870;28;20081;-71
2024/02/19 01:41:36;;;;;;;14.15;2.45;;;6.70;99.90;;;;;;5058921;28;20087;-69
2024/02/19 01:44:02;;;;;;;13.40;2.15;;;6.70;99.90;;;;;;5059690;28;20422;-74
2024/02/19 01:46:30;;;;;;;21.83;2.08;;;6.70;99.90;;;;;;5059460;28;20057;-72
2024/02/19 01:48:56;;;;;;;18.38;2.25;;;6.60;99.90;;;;;;5058686;28;20017;-69
2024/02/19 01:51:27;;;;;;;10.88;1.48;;;6.60;99.90;;;;;;5053651;28;20029;-72
2024/02/19 01:53:54;;;;;;;17.17;2.13;;;6.60;99.90;;;;;;5057072;28;20511;-70
2024/02/19 01:56:19;;;;;;;6.05;1.15;;;6.60;99.90;;;;;;5059507;28;20037;-71
2024/02/19 01:58:48;;;;;;;20.52;2.33;;;6.50;99.90;;;;;;5061099;28;20064;-70
2024/02/19 02:01:15;;;;;;;14.82;1.83;;;6.50;99.90;;;;;;5064229;28;20025;-69
2024/02/19 02:03:43;;;;;;;10.00;1.60;;;6.50;99.90;;;;;;5063353;28;20025;-71
2024/02/19 02:06:09;;;;;;;17.17;1.77;;;6.40;99.90;;;;;;5063395;28;20082;-69
2024/02/19 02:08:40;;;;;;;13.85;1.85;;;6.50;99.90;;;;;;5062680;28;20040;-68
2024/02/19 02:11:07;;;;;;;14.57;1.98;;;6.50;99.90;;;;;;5063296;28;20383;-67
2024/02/19 02:13:35;;;;;;;16.15;1.33;;;6.50;99.90;;;;;;5065012;28;20315;-68
2024/02/19 02:16:02;;;;;;;16.60;1.60;;;6.50;99.90;;;;;;5063325;28;20032;-70
2024/02/19 02:18:30;;;;;;;12.30;1.85;;;6.50;99.90;;;;;;5064618;28;20039;-67
2024/02/19 02:20:56;;;;;;;3.97;0.90;;;6.50;99.90;;;;;;5064687;28;20017;-68
2024/02/19 02:23:23;;;;;;;11.82;1.50;;;6.40;99.90;;;;;;5064460;28;20138;-70
2024/02/19 02:25:49;;;;;;;6.60;1.10;;;6.40;99.90;;;;;;5064415;28;20048;-69
2024/02/19 02:28:14;;;;;;;10.95;1.60;;;6.40;99.90;;;;;;5062794;28;20025;-70
2024/02/19 02:30:40;;;;;;;10.38;1.20;;;6.40;99.90;;;;;;5064221;28;20048;-70
2024/02/19 02:33:05;;;;;;;15.73;1.98;;;6.40;99.90;;;;;;5063554;28;20029;-69
2024/02/19 02:35:31;;;;;;;15.10;1.83;;;6.40;99.90;;;;;;5064435;28;20151;-71
2024/02/19 02:37:59;;;;;;;14.50;1.98;;;6.30;99.90;;;;;;5063696;28;20033;-69
2024/02/19 02:40:25;;;;;;;10.23;1.50;;;6.40;99.90;;;;;;5063956;28;20017;-68
2024/02/19 02:42:51;;;;;;;16.92;1.70;;;6.40;99.90;;;;;;5063933;28;20036;-68
2024/02/19 02:45:16;;;;;;;11.93;1.45;;;6.40;99.90;;;;;;5064376;28;20017;-69
2024/02/19 02:47:42;;;;;;;11.30;1.55;;;6.40;99.90;;;;;;5064469;28;20023;-68
2024/02/19 02:50:08;;;;;;;15.10;1.23;;;6.40;99.90;;;;;;5062593;28;20077;-68
2024/02/19 02:52:34;;;;;;;9.55;1.40;;;6.40;99.90;;;;;;5064279;28;20033;-68
2024/02/19 02:54:59;;;;;;;14.50;1.23;;;6.40;99.90;;;;;;5063314;28;20025;-68
2024/02/19 02:57:25;;;;;;;10.20;1.08;;;6.40;99.90;;;;;;5063996;28;20037;-68
2024/02/19 02:59:50;;;;;;;14.82;1.50;;;6.40;99.90;;;;;;5062655;28;20025;-68
2024/02/19 03:02:16;;;;;;;11.35;1.40;;;6.40;99.90;;;;;;5062829;28;20048;-69
2024/02/19 03:04:42;;;;;;;9.38;2.00;;;6.40;99.90;;;;;;5063463;28;20059;-72
2024/02/19 03:07:07;;;;;;;21.33;2.13;;;6.40;99.90;;;;;;5063748;28;20043;-72
2024/02/19 03:09:33;;;;;;;12.27;1.77;;;6.40;99.90;;;;;;5060522;28;20037;-71
2024/02/19 03:11:59;;;;;;;14.23;2.17;;;6.40;99.90;;;;;;5061729;28;20071;-67
2024/02/19 03:14:24;;;;;;;15.32;2.03;;;6.40;99.90;;;;;;5062131;28;20041;-69
2024/02/19 03:16:52;;;;;;;7.78;1.27;;;6.40;99.90;;;;;;5063222;28;20033;-70
2024/02/19 03:19:19;;;;;;;13.55;1.27;;;6.50;99.90;;;;;;5063053;28;20022;-69
2024/02/19 03:21:45;;;;;;;17.60;2.00;;;6.50;99.90;;;;;;5063329;28;20013;-70
2024/02/19 03:24:11;;;;;;;10.57;1.40;;;6.50;99.90;;;;;;5063227;28;20013;-71
2024/02/19 03:26:36;;;;;;;11.75;1.50;;;6.50;99.90;;;;;;5063114;28;20013;-71
2024/02/19 03:29:11;;;;;;;9.07;1.38;;;6.50;99.90;;;;;;5061881;28;20068;-72
2024/02/19 03:31:38;;;;;;;7.10;0.98;;;6.50;99.90;;;;;;5062439;28;20052;-70
2024/02/19 03:34:04;;;;;;;7.95;1.73;;;6.50;99.90;;;;;;5063191;28;20094;-72
2024/02/19 03:36:29;;;;;;;8.45;1.35;;;6.50;99.90;;;;;;5062269;28;20119;-68
2024/02/19 03:38:55;;;;;;;7.13;1.25;;;6.50;99.90;;;;;;5062523;28;20685;-69
2024/02/19 03:41:21;;;;;;;5.13;1.52;;;6.60;99.90;;;;;;5062745;28;21129;-68
2024/02/19 03:43:46;;;;;;;7.72;1.80;;;6.60;99.90;;;;;;5062756;28;20478;-72
2024/02/19 03:46:12;;;;;;;10.00;2.10;;;6.50;99.90;;;;;;5061611;28;20039;-68
2024/02/19 03:48:42;;;;;;;6.47;1.92;;;6.60;99.90;;;;;;5062725;28;20029;-68
2024/02/19 03:51:10;;;;;;;13.85;2.72;;;6.60;99.90;;;;;;5062517;28;20039;-68
2024/02/19 03:53:35;;;;;;;12.68;3.15;;;6.60;99.90;;;;;;5062313;28;20029;-72
2024/02/19 03:56:01;;;;;;;8.32;2.25;;;6.60;99.90;;;;;;5061675;28;20035;-68
2024/02/19 03:58:27;;;;;;;13.20;2.25;;;6.60;99.90;;;;;;5062992;28;20067;-71
2024/02/19 04:00:53;;;;;;;8.73;2.33;;;6.60;99.90;;;;;;5061571;28;20021;-68
2024/02/19 04:03:18;;;;;;;10.75;2.30;;;6.60;99.90;;;;;;5058224;28;20040;-69
2024/02/19 04:05:44;;;;;;;8.65;2.13;;;6.70;99.90;;;;;;5060177;28;20093;-69
2024/02/19 04:08:09;;;;;;;5.30;1.70;;;6.60;99.90;;;;;;5062103;28;20074;-68
2024/02/19 04:10:35;;;;;;;6.30;1.67;;;6.70;99.90;;;;;;5062938;28;20032;-71
2024/02/19 04:13:01;;;;;;;12.75;1.90;;;6.70;99.90;;;;;;5062534;28;20033;-70
2024/02/19 04:15:27;;;;;;;6.38;1.20;;;6.80;99.90;;;;;;5062493;28;20041;-69
2024/02/19 04:17:53;;;;;;;4.65;1.00;;;6.70;99.90;;;;;;5057596;28;20037;-68
2024/02/19 04:20:19;;;;;;;5.32;0.80;;;6.80;99.90;;;;;;5060049;28;20405;-71
2024/02/19 04:22:44;;;;;;;2.90;0.68;;;6.80;99.90;;;;;;5062036;28;20021;-69
2024/02/19 04:25:12;;;;;;;5.68;0.80;;;6.80;99.90;;;;;;5062412;28;20053;-71
2024/02/19 04:27:38;;;;;;;3.17;1.30;;;6.80;99.90;;;;;;5061989;28;20405;-69
2024/02/19 04:30:04;;;;;;;2.40;0.57;;;6.80;99.90;;;;;;5061776;28;20072;-70
2024/02/19 04:32:29;;;;;;;2.75;0.47;;;6.80;99.90;;;;;;5062411;28;20504;-69
2024/02/19 04:34:57;;;;;;;3.20;0.50;;;6.80;99.90;;;;;;5062068;28;20017;-67
2024/02/19 04:37:22;;;;;;;3.28;0.50;;;6.80;99.90;;;;;;5061575;28;20044;-68
2024/02/19 04:39:48;;;;;;;1.20;0.40;;;6.80;99.90;;;;;;5062298;28;20434;-67
2024/02/19 04:42:14;;;;;;;2.03;0.60;;;6.90;99.90;;;;;;5062011;28;20032;-68
2024/02/19 04:44:39;;;;;;;2.60;0.63;;;6.90;99.90;;;;;;5062324;28;20122;-69
2024/02/19 04:47:05;;;;;;;3.70;0.75;;;6.90;99.90;;;;;;5062834;28;20025;-70
2024/02/19 04:49:31;;;;;;;4.05;1.05;;;6.80;99.90;;;;;;5062680;28;20036;-67
2024/02/19 04:51:56;;;;;;;6.18;1.15;;;6.90;99.90;;;;;;5059960;28;20047;-69
2024/02/19 04:54:22;;;;;;;9.75;1.35;;;6.90;99.90;;;;;;5062036;28;20017;-71
2024/02/19 04:56:47;;;;;;;6.60;1.25;;;6.80;99.90;;;;;;5061530;28;20060;-69
2024/02/19 04:59:13;;;;;;;5.72;1.40;;;6.90;99.90;;;;;;5062075;28;20103;-68
2024/02/19 05:01:39;;;;;;;5.10;1.20;;;6.90;99.90;;;;;;5062549;28;20029;-68
2024/02/19 05:04:05;;;;;;;8.70;1.02;;;6.90;99.90;;;;;;5060871;28;20056;-70
2024/02/19 05:06:30;;;;;;;7.72;1.00;;;6.90;99.90;;;;;;5060949;28;20025;-69
2024/02/19 05:08:56;;;;;;;5.80;0.85;;;6.90;99.90;;;;;;5060599;28;20747;-67
2024/02/19 05:11:21;;;;;;;3.80;1.17;;;6.90;99.90;;;;;;5055578;28;20025;-71
2024/02/19 05:13:47;;;;;;;4.47;1.17;;;6.90;99.90;;;;;;5061407;28;20032;-69
2024/02/19 05:16:12;;;;;;;8.52;1.63;;;7.00;99.90;;;;;;5061677;28;20029;-69
2024/02/19 05:18:38;;;;;;;7.50;2.25;;;7.00;99.90;;;;;;5061797;28;20029;-69
2024/02/19 05:21:04;;;;;;;7.18;1.90;;;7.00;99.90;;;;;;5062720;28;20029;-68
2024/02/19 05:23:30;;;;;;;11.48;2.10;;;7.00;99.90;;;;;;5062038;28;20033;-67
2024/02/19 05:25:56;;;;;;;15.48;3.45;;;7.00;99.90;;;;;;5058979;28;20024;-70
2024/02/19 05:28:21;;;;;;;13.70;2.20;;;7.00;99.90;;;;;;5061660;28;20025;-68
2024/02/19 05:30:47;;;;;;;9.98;2.40;;;7.10;99.90;;;;;;5062517;28;20021;-68
2024/02/19 05:33:18;;;;;;;9.93;2.25;;;7.10;99.90;;;;;;5065611;28;20041;-70
2024/02/19 05:35:45;;;;;;;19.60;2.63;;;7.10;99.90;;;;;;5065376;28;20032;-68
2024/02/19 05:38:11;;;;;;;11.88;2.70;;;7.10;99.90;;;;;;5062991;28;20055;-68
2024/02/19 05:40:38;;;;;;;10.45;2.65;;;7.10;99.90;;;;;;5066114;28;20641;-69
2024/02/19 05:43:04;;;;;;;12.00;3.00;;;7.10;99.90;;;;;;5065741;28;20025;-69
2024/02/19 05:45:30;;;;;;;13.20;2.88;;;7.10;99.90;;;;;;5065472;28;20021;-69
2024/02/19 05:47:56;;;;;;;15.43;2.83;;;7.10;99.90;;;;;;5065970;28;20045;-70
2024/02/19 05:50:21;;;;;;;22.02;3.42;;;7.10;99.90;;;;;;5065880;28;20029;-69
2024/02/19 05:52:47;;;;;;;11.88;2.50;;;7.10;99.90;;;;;;5062613;28;20087;-69
2024/02/19 05:55:13;;;;;;;14.88;3.15;;;7.20;99.90;;;;;;5060780;28;20021;-69
2024/02/19 05:57:38;;;;;;;22.42;3.35;;;7.20;99.90;;;;;;5065232;28;20025;-69
2024/02/19 06:00:05;;;;;;;17.85;2.97;;;7.20;99.90;;;;;;5064449;28;20021;-68
2024/02/19 06:02:31;;;;;;;14.20;3.30;;;7.20;99.90;;;;;;5065623;28;20096;-68
2024/02/19 06:04:56;;;;;;;19.10;2.85;;;7.20;99.90;;;;;;5065143;28;20028;-68
2024/02/19 06:07:22;;;;;;;13.40;3.17;;;7.20;99.90;;;;;;5063324;28;20059;-70
2024/02/19 06:09:47;;;;;;;9.98;2.85;;;7.20;99.90;;;;;;5065566;28;20029;-69
2024/02/19 06:12:13;;;;;;;10.00;2.65;;;7.30;99.90;;;;;;5064850;28;20029;-68
2024/02/19 06:14:39;;;;;;;15.48;3.08;;;7.30;99.90;;;;;;5065519;28;20381;-68
2024/02/19 06:17:04;;;;;;;15.48;3.63;;;7.20;99.90;;;;;;5064377;28;20047;-70
2024/02/19 06:19:30;;;;;;;13.75;3.65;;;7.30;99.90;;;;;;5056049;28;20104;-68
2024/02/19 06:21:55;;;;;;;12.77;3.10;;;7.30;99.90;;;;;;5065355;28;20029;-69
2024/02/19 06:24:21;;;;;;;8.23;2.55;;;7.30;99.90;;;;;;5062923;28;20871;-67
2024/02/19 06:26:46;;;;;;;6.68;2.55;;;7.30;99.90;;;;;;5064889;28;20086;-69
2024/02/19 06:29:12;;;;;;;7.88;2.15;;;7.30;99.90;;;;;;5064008;28;20017;-70
2024/02/19 06:31:38;;;;;;;8.00;1.88;;;7.30;99.90;;;;;;5064778;28;20037;-69
2024/02/19 06:34:04;;;;;;;6.93;2.00;;;7.30;99.90;;;;;;5063417;28;20032;-71
2024/02/19 06:36:29;;;;;;;12.63;2.38;;;7.30;99.90;;;;;;5062532;28;20038;-69
2024/02/19 06:38:55;;;;;;;9.00;2.55;;;7.30;99.90;;;;;;5063258;28;20542;-69
2024/02/19 06:41:21;;;;;;;10.02;2.63;;;7.30;99.90;;;;;;5064770;28;20036;-68
2024/02/19 06:43:46;;;;;;;11.63;2.75;;;7.30;99.90;;;;;;5061673;28;20419;-68
2024/02/19 06:46:12;;;;;;;11.57;2.72;;;7.40;99.90;;;;;;5064278;28;20044;-67
2024/02/19 06:48:40;;;;;;;17.90;4.25;;;7.30;99.90;;;;;;5064519;28;20094;-70
2024/02/19 06:51:05;;;;;;;14.00;2.78;;;7.40;99.90;;;;;;5063200;28;20462;-68
2024/02/19 06:53:31;;;;;;;15.38;3.30;;;7.40;99.90;;;;;;5060275;28;20105;-67
2024/02/19 06:55:58;;;;;;;17.05;3.67;;;7.40;99.90;;;;;;5062028;28;20041;-68
2024/02/19 06:58:23;;;;;;;15.25;3.70;;;7.40;99.90;;;;;;5062960;28;20025;-68
2024/02/19 07:00:49;;;;;;;17.50;2.90;;;7.40;99.90;;;;;;5058207;28;20029;-68
2024/02/19 07:03:15;;;;;;;23.55;4.13;;;7.50;99.90;;;;;;5059283;28;20048;-68
2024/02/19 07:05:42;;;;;;;22.27;5.00;;;7.40;99.90;;;;;;5063014;28;20111;-68
2024/02/19 07:08:07;;;;;;;25.98;4.50;;;7.40;99.90;;;;;;5062409;28;20139;-67
2024/02/19 07:10:33;;;;;;;21.42;4.57;;;7.40;99.90;;;;;;5062833;28;20036;-68
2024/02/19 07:12:59;;;;;;;17.80;4.50;;;7.50;99.90;;;;;;5062901;28;20041;-69
2024/02/19 07:15:24;;;;;;;22.85;4.63;;;7.50;99.90;;;;;;5062225;28;20026;-68
2024/02/19 07:17:50;;;;;;;17.65;3.67;;;7.50;99.90;;;;;;5061591;28;20041;-70
2024/02/19 07:20:15;;;;;;;17.85;4.13;;;7.50;99.90;;;;;;5063540;28;20086;-68
2024/02/19 07:22:41;;;;;;;21.52;4.55;;;7.50;99.90;;;;;;5061078;28;20093;-68
2024/02/19 07:25:07;;;;;;;20.15;4.57;;;7.50;99.90;;;;;;5059276;28;20040;-68
2024/02/19 07:27:33;;;;;;;23.95;3.80;;;7.50;99.90;;;;;;5064213;28;20025;-69
2024/02/19 07:29:58;;;;;;;21.98;4.40;;;7.60;99.90;;;;;;5059461;28;20089;-69
2024/02/19 07:32:24;;;;;;;21.58;4.00;;;7.60;99.90;;;;;;5061623;28;20047;-68
2024/02/19 07:34:49;;;;;;;17.20;3.65;;;7.60;99.90;;;;;;5063121;28;20027;-69
2024/02/19 07:37:15;;;;;;;19.30;3.90;;;7.60;99.90;;;;;;5063511;28;20028;-69
2024/02/19 07:39:41;;;;;;;11.98;2.70;;;7.60;99.90;;;;;;5062510;28;20496;-69
2024/02/19 07:42:08;;;;;;;16.95;3.08;;;7.60;99.90;;;;;;5060643;28;20021;-69
2024/02/19 07:44:33;;;;;;;22.30;3.80;;;7.60;99.90;;;;;;5062774;28;20049;-69
2024/02/19 07:46:59;;;;;;;15.48;3.70;;;7.60;99.90;;;;;;5062722;28;20066;-69
2024/02/19 07:49:24;;;;;;;15.77;4.43;;;7.70;99.90;;;;;;5063461;28;20382;-69
2024/02/19 07:51:50;;;;;;;23.02;4.68;;;7.70;99.90;;;;;;5059189;28;20037;-68
2024/02/19 07:54:15;;;;;;;19.05;4.80;;;7.70;99.90;;;;;;5058330;28;20033;-68
2024/02/19 07:56:41;;;;;;;22.98;5.80;;;7.70;99.90;;;;;;5061069;28;20021;-69
2024/02/19 07:59:06;;;;;;;14.65;5.82;;;7.70;99.90;;;;;;5060815;28;20021;-69
2024/02/19 08:01:32;;;;;;;17.98;6.85;;;7.70;99.90;;;;;;5061315;28;20035;-69
2024/02/19 08:03:58;;;;;;;28.30;6.70;;;7.70;99.90;;;;;;5060810;28;20040;-67
2024/02/19 08:06:23;;;;;;;20.23;6.28;;;7.70;99.90;;;;;;5060083;28;20021;-69
2024/02/19 08:08:49;;;;;;;20.77;6.38;;;7.70;99.90;;;;;;5059148;28;20041;-70
2024/02/19 08:11:14;;;;;;;16.25;5.85;;;7.70;99.90;;;;;;5060402;28;20020;-69
2024/02/19 08:13:43;;;;;;;17.02;6.00;;;7.80;99.90;;;;;;5060735;28;20052;-67
2024/02/19 08:16:10;;;;;;;23.80;5.85;;;7.80;99.90;;;;;;5057260;28;20029;-68
2024/02/19 08:18:35;;;;;;;24.67;5.97;;;7.80;99.90;;;;;;5056467;28;20036;-67
2024/02/19 08:21:01;;;;;;;17.25;5.97;;;7.80;99.90;;;;;;5058525;28;20053;-68
2024/02/19 08:23:27;;;;;;;21.70;6.57;;;7.80;99.90;;;;;;5058386;28;20029;-70
2024/02/19 08:25:52;;;;;;;25.63;6.97;;;7.80;99.90;;;;;;5056967;28;20037;-68
2024/02/19 08:28:18;;;;;;;21.92;6.57;;;7.90;99.90;;;;;;5058244;28;20094;-69
2024/02/19 08:30:45;;;;;;;21.40;7.10;;;8.00;99.90;;;;;;5061731;28;20025;-67
2024/02/19 08:33:15;;;;;;;19.92;6.63;;;8.00;99.90;;;;;;5051614;28;20122;-68
2024/02/19 08:35:41;;;;;;;24.10;6.18;;;8.10;99.90;;;;;;5057669;28;20111;-69
2024/02/19 08:38:07;;;;;;;23.63;7.07;;;8.20;99.90;;;;;;5058736;28;20032;-68
2024/02/19 08:40:32;;;;;;;24.63;6.72;;;8.40;99.90;;;;;;5060146;28;20021;-68
2024/02/19 08:42:58;;;;;;;24.08;6.57;;;8.70;99.90;;;;;;5061261;28;20025;-68
2024/02/19 08:45:23;;;;;;;21.55;6.60;;;9.00;99.90;;;;;;5058109;28;20036;-66
2024/02/19 08:47:49;;;;;;;18.08;5.45;;;9.20;99.90;;;;;;5061385;28;20112;-67
2024/02/19 08:50:15;;;;;;;23.15;4.70;;;9.30;99.90;;;;;;5059524;28;20055;-68
2024/02/19 08:52:40;;;;;;;17.05;4.45;;;9.20;99.90;;;;;;5060073;28;20033;-67
2024/02/19 08:55:06;;;;;;;16.63;3.97;;;9.10;99.90;;;;;;5055060;28;20122;-67
2024/02/19 08:57:32;;;;;;;18.98;3.55;;;9.30;99.90;;;;;;5061805;28;20024;-70
2024/02/19 08:59:57;;;;;;;16.95;3.85;;;9.30;99.90;;;;;;5060187;28;20037;-67
2024/02/19 09:02:23;;;;;;;18.02;3.92;;;9.30;99.90;;;;;;5061295;28;20025;-68
2024/02/19 09:04:49;;;;;;;23.25;4.20;;;9.40;99.90;;;;;;5061762;28;20971;-68
2024/02/19 09:07:14;;;;;;;23.08;5.10;;;9.40;99.90;;;;;;5058897;28;20037;-68
2024/02/19 09:09:44;;;;;;;21.73;4.90;;;9.40;99.90;;;;;;5060128;28;20044;-70
2024/02/19 09:12:12;;;;;;;26.10;4.90;;;9.30;99.90;;;;;;5061292;28;20053;-71
2024/02/19 09:14:38;;;;;;;21.40;4.30;;;9.20;99.90;;;;;;5061234;28;20075;-68
2024/02/19 09:17:05;;;;;;;15.57;3.70;;;9.10;99.90;;;;;;5058800;28;20032;-69
2024/02/19 09:19:34;;;;;;;23.13;4.03;;;9.10;99.90;;;;;;5060481;28;20033;-69
2024/02/19 09:22:00;;;;;;;17.02;4.40;;;9.30;99.90;;;;;;5060592;28;20091;-68
2024/02/19 09:24:25;;;;;;;17.52;4.45;;;9.30;99.90;;;;;;5061464;28;20774;-67
2024/02/19 09:26:52;;;;;;;27.80;5.05;;;9.30;99.90;;;;;;5060690;28;20080;-67
2024/02/19 09:29:17;;;;;;;23.58;4.90;;;9.10;99.90;;;;;;5060390;28;20029;-68
2024/02/19 09:31:43;;;;;;;39.03;5.47;;;9.30;99.90;;;;;;5061545;28;20032;-67
2024/02/19 09:34:09;;;;;;;27.38;5.32;;;9.50;99.90;;;;;;5062001;28;20025;-66
2024/02/19 09:36:34;;;;;;;21.80;5.18;;;9.60;99.90;;;;;;5059082;28;20481;-70
2024/02/19 09:39:00;;;;;;;23.38;5.60;;;9.50;99.90;;;;;;5059769;28;20060;-68
2024/02/19 09:41:25;;;;;;;21.80;5.50;;;9.50;99.90;;;;;;5060851;28;20032;-66
2024/02/19 09:43:51;;;;;;;27.13;5.07;;;9.50;99.90;;;;;;5060287;28;20453;-68
2024/02/19 09:46:19;;;;;;;26.38;4.35;;;9.60;99.90;;;;;;5060710;28;20054;-69
2024/02/19 09:48:49;;;;;;;24.77;5.03;;;9.60;99.90;;;;;;5061323;28;20041;-68
2024/02/19 09:51:25;;;;;;;22.20;4.63;;;9.70;99.90;;;;;;5056322;28;20037;-67
2024/02/19 09:53:51;;;;;;;26.42;5.13;;;9.60;99.90;;;;;;5059944;28;20029;-68
2024/02/19 09:56:19;;;;;;;26.73;5.10;;;9.70;99.90;;;;;;5060360;28;20017;-67
2024/02/19 09:58:46;;;;;;;27.20;5.03;;;9.70;99.90;;;;;;5058510;28;20093;-69
2024/02/19 10:01:11;;;;;;;25.35;5.22;;;9.80;99.90;;;;;;5058724;28;20017;-69
2024/02/19 10:03:37;;;;;;;21.17;4.65;;;10.10;99.90;;;;;;5059762;28;20044;-67
2024/02/19 10:06:03;;;;;;;20.73;4.47;;;10.20;99.90;;;;;;5056695;28;20037;-72
2024/02/19 10:08:29;;;;;;;19.23;4.40;;;10.30;99.90;;;;;;5059860;28;20108;-68
2024/02/19 10:10:56;;;;;;;29.10;4.47;;;10.20;99.90;;;;;;5059301;28;20030;-68
2024/02/19 10:13:22;;;;;;;27.65;4.30;;;10.20;99.90;;;;;;5060610;28;20035;-68
2024/02/19 10:15:50;;;;;;;22.05;4.75;;;10.10;99.90;;;;;;5060506;28;20442;-67
2024/02/19 10:18:18;;;;;;;26.05;4.20;;;10.10;99.90;;;;;;5061831;28;20025;-68
2024/02/19 10:20:46;;;;;;;22.55;4.70;;;10.00;99.90;;;;;;5065038;28;20029;-67
2024/02/19 10:23:12;;;;;;;24.45;4.75;;;10.00;99.90;;;;;;5060700;28;20025;-68
2024/02/19 10:25:37;;;;;;;17.95;4.50;;;9.90;99.90;;;;;;5062804;28;20021;-68
2024/02/19 10:28:05;;;;;;;24.45;4.53;;;9.80;99.90;;;;;;5060814;28;20477;-69
2024/02/19 10:30:30;;;;;;;25.80;4.88;;;9.80;99.90;;;;;;5060130;28;20493;-67
2024/02/19 10:32:56;;;;;;;24.52;4.18;;;9.70;99.90;;;;;;5055830;28;20060;-66
2024/02/19 10:35:22;;;;;;;29.80;4.97;;;9.60;99.90;;;;;;5063956;28;20433;-68
2024/02/19 10:37:48;;;;;;;28.15;4.82;;;9.60;99.90;;;;;;5062701;28;20025;-69
2024/02/19 10:40:18;;;;;;;23.75;4.30;;;9.60;99.90;;;;;;5064658;28;20027;-67
2024/02/19 10:42:46;;;;;;;24.73;4.05;;;9.70;99.90;;;;;;5062473;28;20074;-68
2024/02/19 10:45:12;;;;;;;16.67;3.60;;;9.70;99.90;;;;;;5061685;28;20524;-70
2024/02/19 10:47:39;;;;;;;23.17;4.25;;;9.60;99.90;;;;;;5065127;28;20029;-68
2024/02/19 10:50:06;;;;;;;20.77;4.50;;;9.80;99.90;;;;;;5064735;28;20150;-69
2024/02/19 10:52:33;;;;;;;17.13;4.95;;;9.90;99.90;;;;;;5063996;28;20036;-70
2024/02/19 10:55:00;;;;;;;19.20;4.78;;;9.90;99.90;;;;;;5063883;28;20103;-69
2024/02/19 10:57:32;;;;;;;16.27;4.22;;;9.80;99.90;;;;;;5064670;28;20025;-68
2024/02/19 11:00:09;;;;;;;24.52;5.15;;;9.90;99.90;;;;;;5064261;28;20069;-69
2024/02/19 11:02:36;;;;;;;23.42;5.28;;;9.90;99.90;;;;;;5064292;28;20029;-68
2024/02/19 11:05:03;;;;;;;22.73;5.07;;;9.90;99.90;;;;;;5064257;28;20043;-67
2024/02/19 11:07:33;;;;;;;29.60;4.78;;;9.80;99.90;;;;;;5064283;28;20086;-69
2024/02/19 11:09:59;;;;;;;23.75;5.65;;;9.80;99.90;;;;;;5064122;28;20028;-68
2024/02/19 11:12:25;;;;;;;31.15;6.80;;;9.80;99.90;;;;;;5064100;28;20052;-67
2024/02/19 11:14:52;;;;;;;24.33;5.57;;;9.80;99.90;;;;;;5063876;28;20025;-67
2024/02/19 11:17:18;;;;;;;30.20;6.25;;;9.70;99.90;;;;;;5063839;28;20021;-67
2024/02/19 11:19:43;;;;;;;26.35;6.00;;;9.80;99.90;;;;;;5063505;28;20116;-67
2024/02/19 11:22:11;;;;;;;29.42;5.72;;;9.90;99.90;;;;;;5063584;28;20025;-69
2024/02/19 11:24:38;;;;;;;28.60;5.57;;;9.90;99.90;;;;;;5064089;28;20017;-67
2024/02/19 11:27:04;;;;;;;26.23;6.25;;;10.00;99.90;;;;;;5062899;28;20042;-69
2024/02/19 11:29:30;;;;;;;24.30;5.40;;;10.60;99.90;;;;;;5061448;28;20112;-68
2024/02/19 11:32:00;;;;;;;19.88;4.82;;;11.10;99.90;;;;;;5063633;28;20041;-70
2024/02/19 11:34:26;;;;;;;25.60;5.30;;;11.10;99.90;;;;;;5063483;28;20047;-69
2024/02/19 11:36:51;;;;;;;16.95;4.38;;;11.20;99.90;;;;;;5063963;28;20060;-67
2024/02/19 11:39:17;;;;;;;22.30;4.75;;;11.30;99.90;;;;;;5063425;28;20040;-69
2024/02/19 11:41:43;;;;;;;23.30;4.72;;;11.20;99.90;;;;;;5062384;28;20032;-68
2024/02/19 11:44:15;;;;;;;18.02;4.47;;;11.20;99.90;;;;;;5061655;28;20447;-70
2024/02/19 11:46:41;;;;;;;23.20;4.38;;;11.60;99.90;;;;;;5063087;28;20025;-68
2024/02/19 11:49:08;;;;;;;16.27;3.83;;;11.80;99.90;;;;;;5062563;28;20478;-68
2024/02/19 11:51:37;;;;;;;26.45;4.38;;;11.70;99.90;;;;;;5062884;28;20028;-68
2024/02/19 11:54:04;;;;;;;17.33;4.13;;;11.50;99.90;;;;;;5062528;28;20043;-66
2024/02/19 11:56:50;;;;;;;17.10;4.10;;;11.30;99.90;;;;;;5063179;28;20040;-67
2024/02/19 11:59:16;;;;;;;16.45;4.00;;;11.10;99.90;;;;;;5063173;28;20021;-65
2024/02/19 12:01:51;;;;;;;22.33;5.38;;;10.90;99.90;;;;;;5062622;28;20085;-67
2024/02/19 12:04:17;;;;;;;23.58;5.30;;;10.90;99.90;;;;;;5062370;28;20052;-68
2024/02/19 12:06:43;;;;;;;21.08;4.38;;;11.00;99.90;;;;;;5062798;28;20021;-68
2024/02/19 12:09:09;;;;;;;19.63;4.57;;;11.20;99.90;;;;;;5062623;28;20369;-69
2024/02/19 12:11:35;;;;;;;15.55;4.72;;;11.40;99.90;;;;;;5062562;28;20021;-69
2024/02/19 12:14:04;;;;;;;20.90;4.00;;;11.50;99.90;;;;;;5063020;28;20045;-70
2024/02/19 12:16:31;;;;;;;20.17;4.47;;;11.60;99.90;;;;;;5062683;28;20044;-68
2024/02/19 12:18:56;;;;;;;17.95;5.47;;;11.40;99.90;;;;;;5062038;28;20036;-69
2024/02/19 12:21:23;;;;;;;19.00;4.35;;;11.40;99.90;;;;;;5061479;28;20812;-70
2024/02/19 12:23:53;;;;;;;24.25;5.05;;;11.40;99.90;;;;;;5062017;28;20017;-68
2024/02/19 12:26:22;;;;;;;14.98;4.72;;;11.30;99.90;;;;;;5062537;28;20041;-68
2024/02/19 12:28:49;;;;;;;21.83;3.95;;;11.10;99.90;;;;;;5062425;28;20535;-68
2024/02/19 12:31:18;;;;;;;17.92;3.85;;;11.00;99.90;;;;;;5061975;28;20063;-66
2024/02/19 12:33:44;;;;;;;25.33;4.70;;;10.70;99.90;;;;;;5062041;28;20037;-68
2024/02/19 12:36:12;;;;;;;21.23;4.47;;;10.60;99.90;;;;;;5062485;28;20025;-68
2024/02/19 12:38:45;;;;;;;21.50;4.30;;;10.50;99.90;;;;;;5061442;28;20025;-70
2024/02/19 12:41:12;;;;;;;14.88;4.53;;;10.40;99.90;;;;;;5061136;28;20029;-66
2024/02/19 12:43:38;;;;;;;22.25;4.90;;;10.30;99.90;;;;;;5062251;28;20036;-69